Aérodrome :
LOGIN :

S'inscrire | Disclaimer

   EN    FR    IT 

 










Légende :    VFR   VFR Marginal   IFR   IFR Intensif   IFR Très Intensif
Visi : 
Plafond : 
>= 8 km
>= 3000ft
5 à 8 km
1000 à 3000 ft
1500m à 5 km
500 à 1000 ft
800 à 1500m
200 à 500 ft
< 800m
< 200 ft
Symboles :   Orages  Brouillard  Fortes neiges  Fortes précipitations  Vent > 20 kt
SIGMETs :   Divers  Orages  Givrage  Turbulence  Onde Orograph.  Cendres Volcan.







- Altitude de l'aérodrome : 1260 ft
- Code IATA : LDE
- Voir les cartes d'approche


LFBT - Tarbes / Ossun

DERNIER METAR :
  • 172130Z AUTO VRB02KT 6000 0750 R20/P2000 BCFG NSC 11/10 Q1016 NOSIG

METARs EXPIRÉS :
  • 172100Z AUTO 19002KT CAVOK 11/10 Q1016 NOSIG
  • 172030Z AUTO 00000KT 9999 FEW094 12/11 Q1015 NOSIG
  • 172000Z AUTO 19002KT 9999 FEW096 13/12 Q1016 NOSIG
  • 171930Z AUTO VRB02KT CAVOK 13/12 Q1015 NOSIG
  • 171900Z AUTO VRB02KT 9999 FEW094 14/12 Q1015 NOSIG

TAF AMD TAF LFBT
Valide du 17 à 21h jusqu'au 18 à 18h UTC


172145Z 1721/1818 VRB02KT 9999 FEW040 SCT080
BECMG 1721/1723 3000 BR
PROB30 1721/1803 0800 BCFG BKN005
PROB40 1803/1807 0500 FG VV///
PROB30
TEMPO 1815/1818 -RA BKN010
Pas de NOTAMs connus pour ce terrain.



MET'MAP, la Météo Aéronautique d'un coup d'oeil ! - Copyright ORBIFLY Décembre 2007 - Disclaimer

ORBIFLY MET'MAP TEAM :

Programmation & Développement : Alexandra Zaïnal
Conception & Développement : Baudouin d'Aumeries
Co-Programmation & Développement : Marc-Olivier Méhu
Soutien technique & logistique : Manuel Goepfert

Contact : metmap@orbifly.com




SOURCES & CREDITS :

   NOAA